sensor_id;sensor_type;location;lat;lon;timestamp;P1;durP1;ratioP1;P2;durP2;ratioP2
17151;SDS011;8691;50.828;4.700;2023-07-13T00:00:12;4.30;;;1.33;;
17151;SDS011;8691;50.828;4.700;2023-07-13T00:02:39;2.80;;;1.40;;
17151;SDS011;8691;50.828;4.700;2023-07-13T00:05:06;5.40;;;1.60;;
17151;SDS011;8691;50.828;4.700;2023-07-13T00:07:32;3.37;;;1.23;;
17151;SDS011;8691;50.828;4.700;2023-07-13T00:09:59;7.53;;;1.70;;
17151;SDS011;8691;50.828;4.700;2023-07-13T00:12:28;5.10;;;1.53;;
17151;SDS011;8691;50.828;4.700;2023-07-13T00:14:53;2.40;;;1.43;;
17151;SDS011;8691;50.828;4.700;2023-07-13T00:17:20;3.80;;;1.70;;
17151;SDS011;8691;50.828;4.700;2023-07-13T00:19:47;2.93;;;1.60;;
17151;SDS011;8691;50.828;4.700;2023-07-13T00:22:14;2.60;;;1.40;;
17151;SDS011;8691;50.828;4.700;2023-07-13T00:24:40;3.80;;;1.37;;
17151;SDS011;8691;50.828;4.700;2023-07-13T00:27:09;3.20;;;1.40;;
17151;SDS011;8691;50.828;4.700;2023-07-13T00:29:36;4.17;;;1.47;;
17151;SDS011;8691;50.828;4.700;2023-07-13T00:32:03;4.90;;;2.20;;
17151;SDS011;8691;50.828;4.700;2023-07-13T00:34:30;6.00;;;1.83;;
17151;SDS011;8691;50.828;4.700;2023-07-13T00:36:56;3.03;;;1.37;;
17151;SDS011;8691;50.828;4.700;2023-07-13T00:39:23;3.13;;;1.20;;
17151;SDS011;8691;50.828;4.700;2023-07-13T00:41:50;3.97;;;1.83;;
17151;SDS011;8691;50.828;4.700;2023-07-13T00:44:18;3.70;;;1.53;;
17151;SDS011;8691;50.828;4.700;2023-07-13T00:46:44;3.60;;;1.40;;
17151;SDS011;8691;50.828;4.700;2023-07-13T00:49:12;3.77;;;1.60;;
17151;SDS011;8691;50.828;4.700;2023-07-13T00:51:41;4.73;;;1.50;;
17151;SDS011;8691;50.828;4.700;2023-07-13T00:54:09;4.37;;;1.30;;
17151;SDS011;8691;50.828;4.700;2023-07-13T00:56:34;2.03;;;1.30;;
17151;SDS011;8691;50.828;4.700;2023-07-13T00:59:00;4.23;;;1.50;;
17151;SDS011;8691;50.828;4.700;2023-07-13T01:01:27;3.60;;;1.20;;
17151;SDS011;8691;50.828;4.700;2023-07-13T01:03:54;2.67;;;1.60;;
17151;SDS011;8691;50.828;4.700;2023-07-13T01:06:21;5.80;;;1.50;;
17151;SDS011;8691;50.828;4.700;2023-07-13T01:08:48;3.50;;;1.30;;
17151;SDS011;8691;50.828;4.700;2023-07-13T01:11:18;3.73;;;1.67;;
17151;SDS011;8691;50.828;4.700;2023-07-13T01:13:44;3.10;;;1.50;;
17151;SDS011;8691;50.828;4.700;2023-07-13T01:16:15;4.17;;;2.13;;
17151;SDS011;8691;50.828;4.700;2023-07-13T01:18:39;3.27;;;1.20;;
17151;SDS011;8691;50.828;4.700;2023-07-13T01:21:06;9.90;;;1.77;;
17151;SDS011;8691;50.828;4.700;2023-07-13T01:23:33;4.00;;;1.60;;
17151;SDS011;8691;50.828;4.700;2023-07-13T01:26:00;3.93;;;1.50;;
17151;SDS011;8691;50.828;4.700;2023-07-13T01:28:26;5.03;;;1.97;;
17151;SDS011;8691;50.828;4.700;2023-07-13T01:30:53;6.73;;;1.67;;
17151;SDS011;8691;50.828;4.700;2023-07-13T01:33:19;3.47;;;1.37;;
17151;SDS011;8691;50.828;4.700;2023-07-13T01:35:47;3.60;;;1.80;;
17151;SDS011;8691;50.828;4.700;2023-07-13T01:38:14;4.00;;;1.57;;
17151;SDS011;8691;50.828;4.700;2023-07-13T01:40:40;6.17;;;1.57;;
17151;SDS011;8691;50.828;4.700;2023-07-13T01:43:06;4.37;;;1.63;;
17151;SDS011;8691;50.828;4.700;2023-07-13T01:45:33;6.77;;;2.00;;
17151;SDS011;8691;50.828;4.700;2023-07-13T01:48:00;4.80;;;1.83;;
17151;SDS011;8691;50.828;4.700;2023-07-13T01:50:27;4.35;;;1.70;;
17151;SDS011;8691;50.828;4.700;2023-07-13T01:52:54;3.80;;;1.43;;
17151;SDS011;8691;50.828;4.700;2023-07-13T01:55:20;11.13;;;1.90;;
17151;SDS011;8691;50.828;4.700;2023-07-13T01:57:47;3.67;;;1.60;;
17151;SDS011;8691;50.828;4.700;2023-07-13T02:00:14;6.50;;;1.87;;
17151;SDS011;8691;50.828;4.700;2023-07-13T02:02:40;6.33;;;1.80;;
17151;SDS011;8691;50.828;4.700;2023-07-13T02:05:07;8.10;;;2.03;;
17151;SDS011;8691;50.828;4.700;2023-07-13T02:07:33;3.50;;;1.37;;
17151;SDS011;8691;50.828;4.700;2023-07-13T02:10:00;4.30;;;1.73;;
17151;SDS011;8691;50.828;4.700;2023-07-13T02:12:27;5.47;;;1.73;;
17151;SDS011;8691;50.828;4.700;2023-07-13T02:14:54;4.77;;;2.33;;
17151;SDS011;8691;50.828;4.700;2023-07-13T02:17:21;6.50;;;1.57;;
17151;SDS011;8691;50.828;4.700;2023-07-13T02:19:48;4.17;;;1.53;;
17151;SDS011;8691;50.828;4.700;2023-07-13T02:22:15;4.53;;;2.00;;
17151;SDS011;8691;50.828;4.700;2023-07-13T02:24:42;3.70;;;1.40;;
17151;SDS011;8691;50.828;4.700;2023-07-13T02:27:09;5.83;;;1.73;;
17151;SDS011;8691;50.828;4.700;2023-07-13T02:29:35;4.37;;;1.60;;
17151;SDS011;8691;50.828;4.700;2023-07-13T02:32:02;5.87;;;2.10;;
17151;SDS011;8691;50.828;4.700;2023-07-13T02:34:29;7.57;;;2.10;;
17151;SDS011;8691;50.828;4.700;2023-07-13T02:36:56;5.85;;;2.10;;
17151;SDS011;8691;50.828;4.700;2023-07-13T02:39:23;7.73;;;2.13;;
17151;SDS011;8691;50.828;4.700;2023-07-13T02:41:49;2.63;;;1.70;;
17151;SDS011;8691;50.828;4.700;2023-07-13T02:44:16;4.60;;;1.60;;
17151;SDS011;8691;50.828;4.700;2023-07-13T02:46:42;6.00;;;2.67;;
17151;SDS011;8691;50.828;4.700;2023-07-13T02:49:09;6.97;;;2.13;;
17151;SDS011;8691;50.828;4.700;2023-07-13T02:51:36;6.57;;;2.30;;
17151;SDS011;8691;50.828;4.700;2023-07-13T02:54:03;7.53;;;2.20;;
17151;SDS011;8691;50.828;4.700;2023-07-13T02:56:30;6.03;;;2.00;;
17151;SDS011;8691;50.828;4.700;2023-07-13T02:58:56;8.40;;;2.10;;
17151;SDS011;8691;50.828;4.700;2023-07-13T03:01:23;4.97;;;1.63;;
17151;SDS011;8691;50.828;4.700;2023-07-13T03:03:50;4.30;;;1.70;;
17151;SDS011;8691;50.828;4.700;2023-07-13T03:06:16;5.03;;;1.67;;
17151;SDS011;8691;50.828;4.700;2023-07-13T03:08:43;7.15;;;2.17;;
17151;SDS011;8691;50.828;4.700;2023-07-13T03:11:14;6.80;;;2.20;;
17151;SDS011;8691;50.828;4.700;2023-07-13T03:13:40;8.33;;;2.43;;
17151;SDS011;8691;50.828;4.700;2023-07-13T03:16:07;7.22;;;2.20;;
17151;SDS011;8691;50.828;4.700;2023-07-13T03:18:33;5.90;;;2.30;;
17151;SDS011;8691;50.828;4.700;2023-07-13T03:21:00;4.93;;;2.10;;
17151;SDS011;8691;50.828;4.700;2023-07-13T03:23:27;4.23;;;2.03;;
17151;SDS011;8691;50.828;4.700;2023-07-13T03:26:04;5.27;;;1.77;;
17151;SDS011;8691;50.828;4.700;2023-07-13T03:28:35;7.97;;;2.30;;
17151;SDS011;8691;50.828;4.700;2023-07-13T03:31:05;8.80;;;2.45;;
17151;SDS011;8691;50.828;4.700;2023-07-13T03:33:31;5.75;;;2.30;;
17151;SDS011;8691;50.828;4.700;2023-07-13T03:35:58;3.87;;;1.80;;
17151;SDS011;8691;50.828;4.700;2023-07-13T03:38:25;4.90;;;1.70;;
17151;SDS011;8691;50.828;4.700;2023-07-13T03:40:52;6.00;;;2.37;;
17151;SDS011;8691;50.828;4.700;2023-07-13T03:43:18;5.83;;;1.70;;
17151;SDS011;8691;50.828;4.700;2023-07-13T03:45:45;5.93;;;2.20;;
17151;SDS011;8691;50.828;4.700;2023-07-13T03:48:12;4.03;;;1.73;;
17151;SDS011;8691;50.828;4.700;2023-07-13T03:50:39;5.00;;;1.90;;
17151;SDS011;8691;50.828;4.700;2023-07-13T03:53:06;7.00;;;2.20;;
17151;SDS011;8691;50.828;4.700;2023-07-13T03:55:32;5.83;;;1.83;;
17151;SDS011;8691;50.828;4.700;2023-07-13T03:58:00;7.87;;;2.43;;
17151;SDS011;8691;50.828;4.700;2023-07-13T04:00:26;6.33;;;2.10;;
17151;SDS011;8691;50.828;4.700;2023-07-13T04:02:52;5.60;;;1.90;;
17151;SDS011;8691;50.828;4.700;2023-07-13T04:05:19;4.77;;;2.10;;
17151;SDS011;8691;50.828;4.700;2023-07-13T04:07:45;6.40;;;1.97;;
17151;SDS011;8691;50.828;4.700;2023-07-13T04:10:12;5.97;;;1.87;;
17151;SDS011;8691;50.828;4.700;2023-07-13T04:12:39;6.57;;;2.00;;
17151;SDS011;8691;50.828;4.700;2023-07-13T04:15:05;6.53;;;2.23;;
17151;SDS011;8691;50.828;4.700;2023-07-13T04:17:32;5.57;;;2.17;;
17151;SDS011;8691;50.828;4.700;2023-07-13T04:19:59;6.67;;;2.13;;
17151;SDS011;8691;50.828;4.700;2023-07-13T04:22:25;7.60;;;2.30;;
17151;SDS011;8691;50.828;4.700;2023-07-13T04:24:52;8.03;;;2.40;;
17151;SDS011;8691;50.828;4.700;2023-07-13T04:27:19;6.97;;;2.38;;
17151;SDS011;8691;50.828;4.700;2023-07-13T04:29:46;6.47;;;2.10;;
17151;SDS011;8691;50.828;4.700;2023-07-13T04:32:12;7.70;;;2.20;;
17151;SDS011;8691;50.828;4.700;2023-07-13T04:34:39;5.03;;;1.70;;
17151;SDS011;8691;50.828;4.700;2023-07-13T04:37:06;7.30;;;1.90;;
17151;SDS011;8691;50.828;4.700;2023-07-13T04:39:33;11.83;;;2.03;;
17151;SDS011;8691;50.828;4.700;2023-07-13T04:42:00;6.13;;;2.20;;
17151;SDS011;8691;50.828;4.700;2023-07-13T04:44:27;9.23;;;1.97;;
17151;SDS011;8691;50.828;4.700;2023-07-13T04:46:54;5.77;;;1.87;;
17151;SDS011;8691;50.828;4.700;2023-07-13T04:49:21;7.60;;;2.27;;
17151;SDS011;8691;50.828;4.700;2023-07-13T04:51:48;4.93;;;2.03;;
17151;SDS011;8691;50.828;4.700;2023-07-13T04:54:14;8.67;;;2.07;;
17151;SDS011;8691;50.828;4.700;2023-07-13T04:56:41;4.67;;;1.77;;
17151;SDS011;8691;50.828;4.700;2023-07-13T04:59:08;5.47;;;1.77;;
17151;SDS011;8691;50.828;4.700;2023-07-13T05:01:34;4.87;;;1.40;;
17151;SDS011;8691;50.828;4.700;2023-07-13T05:04:01;7.10;;;1.80;;
17151;SDS011;8691;50.828;4.700;2023-07-13T05:06:28;9.63;;;2.00;;
17151;SDS011;8691;50.828;4.700;2023-07-13T05:08:54;7.85;;;2.67;;
17151;SDS011;8691;50.828;4.700;2023-07-13T05:11:21;3.87;;;1.73;;
17151;SDS011;8691;50.828;4.700;2023-07-13T05:13:49;8.25;;;2.40;;
17151;SDS011;8691;50.828;4.700;2023-07-13T05:16:15;6.83;;;2.27;;
17151;SDS011;8691;50.828;4.700;2023-07-13T05:18:42;4.33;;;1.80;;
17151;SDS011;8691;50.828;4.700;2023-07-13T05:21:09;10.07;;;2.40;;
17151;SDS011;8691;50.828;4.700;2023-07-13T05:23:36;7.80;;;2.45;;
17151;SDS011;8691;50.828;4.700;2023-07-13T05:26:03;7.00;;;2.20;;
17151;SDS011;8691;50.828;4.700;2023-07-13T05:28:30;8.50;;;2.03;;
17151;SDS011;8691;50.828;4.700;2023-07-13T05:30:56;6.37;;;1.90;;
17151;SDS011;8691;50.828;4.700;2023-07-13T05:33:23;8.57;;;1.87;;
17151;SDS011;8691;50.828;4.700;2023-07-13T05:35:50;6.83;;;1.90;;
17151;SDS011;8691;50.828;4.700;2023-07-13T05:38:17;7.97;;;1.80;;
17151;SDS011;8691;50.828;4.700;2023-07-13T05:40:44;6.97;;;2.00;;
17151;SDS011;8691;50.828;4.700;2023-07-13T05:43:11;8.33;;;2.17;;
17151;SDS011;8691;50.828;4.700;2023-07-13T05:45:38;9.23;;;2.20;;
17151;SDS011;8691;50.828;4.700;2023-07-13T05:48:05;8.37;;;2.30;;
17151;SDS011;8691;50.828;4.700;2023-07-13T05:50:32;8.37;;;2.40;;
17151;SDS011;8691;50.828;4.700;2023-07-13T05:52:59;8.60;;;2.17;;
17151;SDS011;8691;50.828;4.700;2023-07-13T05:55:25;6.60;;;1.73;;
17151;SDS011;8691;50.828;4.700;2023-07-13T05:57:52;9.23;;;2.30;;
17151;SDS011;8691;50.828;4.700;2023-07-13T06:00:19;7.87;;;2.27;;
17151;SDS011;8691;50.828;4.700;2023-07-13T06:02:45;7.83;;;1.83;;
17151;SDS011;8691;50.828;4.700;2023-07-13T06:05:13;6.43;;;1.93;;
17151;SDS011;8691;50.828;4.700;2023-07-13T06:07:40;9.73;;;2.07;;
17151;SDS011;8691;50.828;4.700;2023-07-13T06:10:07;7.53;;;2.50;;
17151;SDS011;8691;50.828;4.700;2023-07-13T06:12:33;7.80;;;2.00;;
17151;SDS011;8691;50.828;4.700;2023-07-13T06:15:00;5.73;;;1.70;;
17151;SDS011;8691;50.828;4.700;2023-07-13T06:17:27;6.30;;;1.97;;
17151;SDS011;8691;50.828;4.700;2023-07-13T06:19:54;8.03;;;2.13;;
17151;SDS011;8691;50.828;4.700;2023-07-13T06:22:21;7.13;;;1.90;;
17151;SDS011;8691;50.828;4.700;2023-07-13T06:24:48;7.57;;;2.43;;
17151;SDS011;8691;50.828;4.700;2023-07-13T06:27:15;7.13;;;2.13;;
17151;SDS011;8691;50.828;4.700;2023-07-13T06:29:42;6.73;;;1.97;;
17151;SDS011;8691;50.828;4.700;2023-07-13T06:32:09;7.50;;;2.00;;
17151;SDS011;8691;50.828;4.700;2023-07-13T06:34:35;7.63;;;1.77;;
17151;SDS011;8691;50.828;4.700;2023-07-13T06:37:02;6.50;;;2.10;;
17151;SDS011;8691;50.828;4.700;2023-07-13T06:39:29;5.80;;;2.00;;
17151;SDS011;8691;50.828;4.700;2023-07-13T06:41:55;12.13;;;2.47;;
17151;SDS011;8691;50.828;4.700;2023-07-13T06:44:22;5.43;;;2.07;;
17151;SDS011;8691;50.828;4.700;2023-07-13T06:46:49;8.23;;;2.30;;
17151;SDS011;8691;50.828;4.700;2023-07-13T06:49:15;8.02;;;2.30;;
17151;SDS011;8691;50.828;4.700;2023-07-13T06:51:42;7.30;;;2.00;;
17151;SDS011;8691;50.828;4.700;2023-07-13T06:54:09;11.27;;;2.83;;
17151;SDS011;8691;50.828;4.700;2023-07-13T06:56:36;6.77;;;2.00;;
17151;SDS011;8691;50.828;4.700;2023-07-13T06:59:03;9.60;;;1.83;;
17151;SDS011;8691;50.828;4.700;2023-07-13T07:01:30;6.97;;;2.17;;
17151;SDS011;8691;50.828;4.700;2023-07-13T07:03:56;9.47;;;2.00;;
17151;SDS011;8691;50.828;4.700;2023-07-13T07:06:23;7.67;;;1.97;;
17151;SDS011;8691;50.828;4.700;2023-07-13T07:08:51;9.45;;;2.55;;
17151;SDS011;8691;50.828;4.700;2023-07-13T07:11:21;7.00;;;2.10;;
17151;SDS011;8691;50.828;4.700;2023-07-13T07:13:48;7.43;;;2.20;;
17151;SDS011;8691;50.828;4.700;2023-07-13T07:16:14;6.10;;;2.20;;
17151;SDS011;8691;50.828;4.700;2023-07-13T07:18:41;7.67;;;2.20;;
17151;SDS011;8691;50.828;4.700;2023-07-13T07:21:09;6.60;;;2.22;;
17151;SDS011;8691;50.828;4.700;2023-07-13T07:23:36;7.30;;;2.27;;
17151;SDS011;8691;50.828;4.700;2023-07-13T07:26:03;8.18;;;2.35;;
17151;SDS011;8691;50.828;4.700;2023-07-13T07:28:29;7.80;;;2.17;;
17151;SDS011;8691;50.828;4.700;2023-07-13T07:30:56;9.13;;;2.03;;
17151;SDS011;8691;50.828;4.700;2023-07-13T07:33:23;9.00;;;2.33;;
17151;SDS011;8691;50.828;4.700;2023-07-13T07:35:49;7.27;;;2.27;;
17151;SDS011;8691;50.828;4.700;2023-07-13T07:38:16;5.70;;;1.60;;
17151;SDS011;8691;50.828;4.700;2023-07-13T07:40:43;7.25;;;2.22;;
17151;SDS011;8691;50.828;4.700;2023-07-13T07:43:09;7.37;;;2.10;;
17151;SDS011;8691;50.828;4.700;2023-07-13T07:45:36;9.20;;;2.33;;
17151;SDS011;8691;50.828;4.700;2023-07-13T07:48:04;7.87;;;1.60;;
17151;SDS011;8691;50.828;4.700;2023-07-13T07:50:30;9.07;;;1.90;;
17151;SDS011;8691;50.828;4.700;2023-07-13T07:52:57;9.93;;;2.43;;
17151;SDS011;8691;50.828;4.700;2023-07-13T07:55:24;6.63;;;1.77;;
17151;SDS011;8691;50.828;4.700;2023-07-13T07:57:51;4.37;;;1.80;;
17151;SDS011;8691;50.828;4.700;2023-07-13T08:00:18;8.50;;;2.10;;
17151;SDS011;8691;50.828;4.700;2023-07-13T08:02:45;7.87;;;2.07;;
17151;SDS011;8691;50.828;4.700;2023-07-13T08:05:11;4.20;;;1.60;;
17151;SDS011;8691;50.828;4.700;2023-07-13T08:07:38;6.27;;;1.73;;
17151;SDS011;8691;50.828;4.700;2023-07-13T08:10:05;8.13;;;2.07;;
17151;SDS011;8691;50.828;4.700;2023-07-13T08:12:37;6.17;;;1.80;;
17151;SDS011;8691;50.828;4.700;2023-07-13T08:15:04;4.43;;;1.60;;
17151;SDS011;8691;50.828;4.700;2023-07-13T08:17:30;7.13;;;1.87;;
17151;SDS011;8691;50.828;4.700;2023-07-13T08:19:57;4.93;;;1.80;;
17151;SDS011;8691;50.828;4.700;2023-07-13T08:22:24;5.90;;;2.10;;
17151;SDS011;8691;50.828;4.700;2023-07-13T08:24:50;5.90;;;2.13;;
17151;SDS011;8691;50.828;4.700;2023-07-13T08:27:17;3.03;;;1.30;;
17151;SDS011;8691;50.828;4.700;2023-07-13T08:29:43;6.07;;;1.93;;
17151;SDS011;8691;50.828;4.700;2023-07-13T08:32:11;3.83;;;1.67;;
17151;SDS011;8691;50.828;4.700;2023-07-13T08:34:37;4.87;;;1.67;;
17151;SDS011;8691;50.828;4.700;2023-07-13T08:37:04;6.17;;;1.83;;
17151;SDS011;8691;50.828;4.700;2023-07-13T08:39:31;6.87;;;1.93;;
17151;SDS011;8691;50.828;4.700;2023-07-13T08:42:04;4.53;;;1.33;;
17151;SDS011;8691;50.828;4.700;2023-07-13T08:44:49;4.50;;;1.57;;
17151;SDS011;8691;50.828;4.700;2023-07-13T08:46:57;7.83;;;1.77;;
17151;SDS011;8691;50.828;4.700;2023-07-13T08:49:24;4.27;;;1.57;;
17151;SDS011;8691;50.828;4.700;2023-07-13T08:51:54;5.35;;;1.75;;
17151;SDS011;8691;50.828;4.700;2023-07-13T08:54:37;4.05;;;1.60;;
17151;SDS011;8691;50.828;4.700;2023-07-13T08:57:09;5.78;;;1.65;;
17151;SDS011;8691;50.828;4.700;2023-07-13T08:59:30;4.40;;;1.40;;
17151;SDS011;8691;50.828;4.700;2023-07-13T09:02:06;3.85;;;1.48;;
17151;SDS011;8691;50.828;4.700;2023-07-13T09:04:37;3.80;;;1.30;;
17151;SDS011;8691;50.828;4.700;2023-07-13T09:12:40;4.28;;;1.20;;
17151;SDS011;8691;50.828;4.700;2023-07-13T09:18:02;3.05;;;1.10;;
17151;SDS011;8691;50.828;4.700;2023-07-13T09:20:27;3.00;;;1.20;;
17151;SDS011;8691;50.828;4.700;2023-07-13T09:22:53;3.42;;;1.30;;
17151;SDS011;8691;50.828;4.700;2023-07-13T09:25:30;4.47;;;1.50;;
17151;SDS011;8691;50.828;4.700;2023-07-13T09:28:04;6.82;;;1.60;;
17151;SDS011;8691;50.828;4.700;2023-07-13T09:33:20;4.50;;;1.40;;
17151;SDS011;8691;50.828;4.700;2023-07-13T09:35:48;4.00;;;1.60;;
17151;SDS011;8691;50.828;4.700;2023-07-13T09:38:17;4.53;;;1.55;;
17151;SDS011;8691;50.828;4.700;2023-07-13T09:40:46;3.28;;;1.20;;
17151;SDS011;8691;50.828;4.700;2023-07-13T09:43:16;5.53;;;1.60;;
17151;SDS011;8691;50.828;4.700;2023-07-13T09:45:45;5.60;;;1.48;;
17151;SDS011;8691;50.828;4.700;2023-07-13T09:48:12;4.07;;;1.50;;
17151;SDS011;8691;50.828;4.700;2023-07-13T09:50:40;3.72;;;1.20;;
17151;SDS011;8691;50.828;4.700;2023-07-13T09:53:13;3.33;;;1.17;;
17151;SDS011;8691;50.828;4.700;2023-07-13T09:55:41;3.95;;;1.17;;
17151;SDS011;8691;50.828;4.700;2023-07-13T09:58:20;5.05;;;1.60;;
17151;SDS011;8691;50.828;4.700;2023-07-13T10:00:54;3.25;;;1.00;;
17151;SDS011;8691;50.828;4.700;2023-07-13T10:03:21;2.97;;;1.00;;
17151;SDS011;8691;50.828;4.700;2023-07-13T10:05:48;3.88;;;1.38;;
17151;SDS011;8691;50.828;4.700;2023-07-13T10:08:20;3.88;;;1.20;;
17151;SDS011;8691;50.828;4.700;2023-07-13T10:10:46;3.25;;;1.00;;
17151;SDS011;8691;50.828;4.700;2023-07-13T10:15:50;5.65;;;1.25;;
17151;SDS011;8691;50.828;4.700;2023-07-13T10:18:16;3.63;;;1.10;;
17151;SDS011;8691;50.828;4.700;2023-07-13T10:20:44;3.65;;;1.12;;
17151;SDS011;8691;50.828;4.700;2023-07-13T10:23:13;4.18;;;1.02;;
17151;SDS011;8691;50.828;4.700;2023-07-13T10:25:39;4.57;;;1.35;;
17151;SDS011;8691;50.828;4.700;2023-07-13T10:28:09;3.65;;;1.10;;
17151;SDS011;8691;50.828;4.700;2023-07-13T10:30:34;5.18;;;1.48;;
17151;SDS011;8691;50.828;4.700;2023-07-13T10:33:02;3.47;;;1.27;;
17151;SDS011;8691;50.828;4.700;2023-07-13T10:35:28;4.32;;;1.40;;
17151;SDS011;8691;50.828;4.700;2023-07-13T10:38:01;2.90;;;1.10;;
17151;SDS011;8691;50.828;4.700;2023-07-13T10:40:39;4.35;;;1.10;;
17151;SDS011;8691;50.828;4.700;2023-07-13T10:43:10;2.30;;;1.07;;
17151;SDS011;8691;50.828;4.700;2023-07-13T10:45:52;4.17;;;1.40;;
17151;SDS011;8691;50.828;4.700;2023-07-13T10:48:19;2.85;;;1.10;;
17151;SDS011;8691;50.828;4.700;2023-07-13T10:50:47;4.22;;;1.10;;
17151;SDS011;8691;50.828;4.700;2023-07-13T10:53:18;4.28;;;1.15;;
17151;SDS011;8691;50.828;4.700;2023-07-13T10:58:29;4.00;;;1.15;;
17151;SDS011;8691;50.828;4.700;2023-07-13T11:01:17;2.85;;;1.00;;
17151;SDS011;8691;50.828;4.700;2023-07-13T11:03:22;4.25;;;0.90;;
17151;SDS011;8691;50.828;4.700;2023-07-13T11:05:50;3.33;;;1.27;;
17151;SDS011;8691;50.828;4.700;2023-07-13T11:08:19;5.45;;;1.23;;
17151;SDS011;8691;50.828;4.700;2023-07-13T11:10:55;3.10;;;1.10;;
17151;SDS011;8691;50.828;4.700;2023-07-13T11:18:49;3.50;;;1.00;;
17151;SDS011;8691;50.828;4.700;2023-07-13T11:21:14;3.20;;;1.30;;
17151;SDS011;8691;50.828;4.700;2023-07-13T11:23:43;6.43;;;1.00;;
17151;SDS011;8691;50.828;4.700;2023-07-13T11:29:23;2.42;;;1.00;;
17151;SDS011;8691;50.828;4.700;2023-07-13T11:31:52;4.62;;;1.17;;
17151;SDS011;8691;50.828;4.700;2023-07-13T11:34:24;3.05;;;1.08;;
17151;SDS011;8691;50.828;4.700;2023-07-13T11:36:48;3.03;;;1.20;;
17151;SDS011;8691;50.828;4.700;2023-07-13T11:41:58;2.65;;;1.00;;
17151;SDS011;8691;50.828;4.700;2023-07-13T11:44:22;2.90;;;1.02;;
17151;SDS011;8691;50.828;4.700;2023-07-13T11:46:52;2.60;;;0.90;;
17151;SDS011;8691;50.828;4.700;2023-07-13T11:49:18;2.20;;;1.00;;
17151;SDS011;8691;50.828;4.700;2023-07-13T11:51:45;1.98;;;0.90;;
17151;SDS011;8691;50.828;4.700;2023-07-13T11:54:26;3.83;;;1.00;;
17151;SDS011;8691;50.828;4.700;2023-07-13T11:57:11;3.97;;;1.10;;
17151;SDS011;8691;50.828;4.700;2023-07-13T11:59:33;2.42;;;1.00;;
17151;SDS011;8691;50.828;4.700;2023-07-13T12:02:00;3.72;;;1.20;;
17151;SDS011;8691;50.828;4.700;2023-07-13T12:04:29;2.60;;;1.20;;
17151;SDS011;8691;50.828;4.700;2023-07-13T12:07:03;2.53;;;1.00;;
17151;SDS011;8691;50.828;4.700;2023-07-13T12:09:22;3.22;;;0.90;;
17151;SDS011;8691;50.828;4.700;2023-07-13T12:11:49;2.67;;;1.00;;
17151;SDS011;8691;50.828;4.700;2023-07-13T12:14:17;1.80;;;0.80;;
17151;SDS011;8691;50.828;4.700;2023-07-13T12:16:44;1.33;;;0.70;;
17151;SDS011;8691;50.828;4.700;2023-07-13T12:19:18;3.60;;;1.08;;
17151;SDS011;8691;50.828;4.700;2023-07-13T12:21:47;1.35;;;0.62;;
17151;SDS011;8691;50.828;4.700;2023-07-13T12:24:16;1.42;;;0.73;;
17151;SDS011;8691;50.828;4.700;2023-07-13T12:26:42;2.28;;;0.70;;
17151;SDS011;8691;50.828;4.700;2023-07-13T12:29:14;1.42;;;0.90;;
17151;SDS011;8691;50.828;4.700;2023-07-13T12:31:43;2.50;;;1.00;;
17151;SDS011;8691;50.828;4.700;2023-07-13T12:34:16;2.47;;;0.90;;
17151;SDS011;8691;50.828;4.700;2023-07-13T12:36:53;2.50;;;0.80;;
17151;SDS011;8691;50.828;4.700;2023-07-13T12:41:49;2.90;;;1.10;;
17151;SDS011;8691;50.828;4.700;2023-07-13T12:44:17;1.83;;;0.77;;
17151;SDS011;8691;50.828;4.700;2023-07-13T12:47:02;2.20;;;0.90;;
17151;SDS011;8691;50.828;4.700;2023-07-13T12:49:30;4.22;;;1.02;;
17151;SDS011;8691;50.828;4.700;2023-07-13T12:51:56;2.43;;;1.00;;
17151;SDS011;8691;50.828;4.700;2023-07-13T12:54:22;2.83;;;0.90;;
17151;SDS011;8691;50.828;4.700;2023-07-13T12:56:49;2.23;;;0.93;;
17151;SDS011;8691;50.828;4.700;2023-07-13T12:59:17;2.75;;;0.90;;
17151;SDS011;8691;50.828;4.700;2023-07-13T13:01:44;3.20;;;0.85;;
17151;SDS011;8691;50.828;4.700;2023-07-13T13:04:11;3.40;;;0.90;;
17151;SDS011;8691;50.828;4.700;2023-07-13T13:06:38;4.05;;;1.10;;
17151;SDS011;8691;50.828;4.700;2023-07-13T13:09:05;3.83;;;1.10;;
17151;SDS011;8691;50.828;4.700;2023-07-13T13:11:32;2.43;;;1.10;;
17151;SDS011;8691;50.828;4.700;2023-07-13T13:13:59;2.67;;;1.00;;
17151;SDS011;8691;50.828;4.700;2023-07-13T13:18:54;0.90;;;0.60;;
17151;SDS011;8691;50.828;4.700;2023-07-13T13:21:20;1.63;;;0.87;;
17151;SDS011;8691;50.828;4.700;2023-07-13T13:23:46;3.73;;;1.00;;
17151;SDS011;8691;50.828;4.700;2023-07-13T13:26:13;3.57;;;0.87;;
17151;SDS011;8691;50.828;4.700;2023-07-13T13:28:39;1.90;;;1.10;;
17151;SDS011;8691;50.828;4.700;2023-07-13T13:31:07;2.03;;;1.00;;
17151;SDS011;8691;50.828;4.700;2023-07-13T13:33:33;3.00;;;1.13;;
17151;SDS011;8691;50.828;4.700;2023-07-13T13:35:59;1.63;;;0.93;;
17151;SDS011;8691;50.828;4.700;2023-07-13T13:38:26;1.80;;;1.03;;
17151;SDS011;8691;50.828;4.700;2023-07-13T13:40:52;4.33;;;1.10;;
17151;SDS011;8691;50.828;4.700;2023-07-13T13:43:24;1.43;;;1.03;;
17151;SDS011;8691;50.828;4.700;2023-07-13T13:45:49;2.27;;;0.90;;
17151;SDS011;8691;50.828;4.700;2023-07-13T13:48:17;1.27;;;0.93;;
17151;SDS011;8691;50.828;4.700;2023-07-13T13:50:48;1.93;;;0.90;;
17151;SDS011;8691;50.828;4.700;2023-07-13T13:53:14;5.53;;;0.90;;
17151;SDS011;8691;50.828;4.700;2023-07-13T13:55:41;1.90;;;0.93;;
17151;SDS011;8691;50.828;4.700;2023-07-13T13:58:08;2.03;;;1.27;;
17151;SDS011;8691;50.828;4.700;2023-07-13T14:00:35;2.60;;;0.90;;
17151;SDS011;8691;50.828;4.700;2023-07-13T14:03:01;4.10;;;1.60;;
17151;SDS011;8691;50.828;4.700;2023-07-13T14:05:28;4.13;;;0.93;;
17151;SDS011;8691;50.828;4.700;2023-07-13T14:07:54;3.80;;;1.10;;
17151;SDS011;8691;50.828;4.700;2023-07-13T14:10:21;3.80;;;1.40;;
17151;SDS011;8691;50.828;4.700;2023-07-13T14:12:48;1.53;;;1.10;;
17151;SDS011;8691;50.828;4.700;2023-07-13T14:15:19;8.00;;;1.03;;
17151;SDS011;8691;50.828;4.700;2023-07-13T14:17:43;1.40;;;1.00;;
17151;SDS011;8691;50.828;4.700;2023-07-13T14:20:11;2.20;;;1.13;;
17151;SDS011;8691;50.828;4.700;2023-07-13T14:22:36;3.67;;;1.33;;
17151;SDS011;8691;50.828;4.700;2023-07-13T14:25:03;3.27;;;1.10;;
17151;SDS011;8691;50.828;4.700;2023-07-13T14:27:30;4.10;;;1.20;;
17151;SDS011;8691;50.828;4.700;2023-07-13T14:29:57;3.25;;;1.02;;
17151;SDS011;8691;50.828;4.700;2023-07-13T14:32:24;2.63;;;1.17;;
17151;SDS011;8691;50.828;4.700;2023-07-13T14:34:51;2.50;;;1.20;;
17151;SDS011;8691;50.828;4.700;2023-07-13T14:37:19;7.32;;;1.27;;
17151;SDS011;8691;50.828;4.700;2023-07-13T14:39:46;2.03;;;1.00;;
17151;SDS011;8691;50.828;4.700;2023-07-13T14:42:13;4.88;;;0.90;;
17151;SDS011;8691;50.828;4.700;2023-07-13T14:44:40;3.13;;;1.20;;
17151;SDS011;8691;50.828;4.700;2023-07-13T14:47:07;3.10;;;1.10;;
17151;SDS011;8691;50.828;4.700;2023-07-13T14:49:35;2.20;;;1.00;;
17151;SDS011;8691;50.828;4.700;2023-07-13T14:52:11;2.50;;;1.15;;
17151;SDS011;8691;50.828;4.700;2023-07-13T14:54:45;1.93;;;1.03;;
17151;SDS011;8691;50.828;4.700;2023-07-13T14:57:18;2.60;;;1.10;;
17151;SDS011;8691;50.828;4.700;2023-07-13T14:59:42;3.23;;;1.17;;
17151;SDS011;8691;50.828;4.700;2023-07-13T15:02:17;1.88;;;1.00;;
17151;SDS011;8691;50.828;4.700;2023-07-13T15:04:49;2.10;;;1.17;;
17151;SDS011;8691;50.828;4.700;2023-07-13T15:07:16;2.88;;;1.20;;
17151;SDS011;8691;50.828;4.700;2023-07-13T15:09:43;2.83;;;1.37;;
17151;SDS011;8691;50.828;4.700;2023-07-13T15:12:10;3.30;;;1.27;;
17151;SDS011;8691;50.828;4.700;2023-07-13T15:14:37;1.95;;;1.12;;
17151;SDS011;8691;50.828;4.700;2023-07-13T15:17:04;2.73;;;1.23;;
17151;SDS011;8691;50.828;4.700;2023-07-13T15:19:31;2.27;;;1.20;;
17151;SDS011;8691;50.828;4.700;2023-07-13T15:21:57;2.40;;;1.00;;
17151;SDS011;8691;50.828;4.700;2023-07-13T15:24:24;2.27;;;1.10;;
17151;SDS011;8691;50.828;4.700;2023-07-13T15:26:52;2.57;;;1.20;;
17151;SDS011;8691;50.828;4.700;2023-07-13T15:29:20;2.20;;;1.10;;
17151;SDS011;8691;50.828;4.700;2023-07-13T15:31:47;2.37;;;1.20;;
17151;SDS011;8691;50.828;4.700;2023-07-13T15:34:15;3.07;;;1.40;;